createdAt,value
2018-02-25T00:01:51.138Z,74.50
2018-02-25T00:04:19.084Z,74.20
2018-02-25T00:09:23.854Z,74.60
2018-02-25T00:11:51.860Z,73.90
2018-02-25T00:14:20.322Z,73.90
2018-02-25T00:16:47.978Z,73.90
2018-02-25T00:19:15.645Z,73.90
2018-02-25T00:21:43.244Z,74.10
2018-02-25T00:24:11.602Z,73.90
2018-02-25T00:26:39.843Z,74.10
2018-02-25T00:29:07.510Z,74.10
2018-02-25T00:31:35.157Z,73.70
2018-02-25T00:34:03.398Z,74.20
2018-02-25T00:36:31.018Z,74.30
2018-02-25T00:38:58.595Z,74.00
2018-02-25T00:41:26.222Z,74.20
2018-02-25T00:43:54.434Z,73.70
2018-02-25T00:46:22.033Z,74.00
2018-02-25T00:48:50.686Z,74.00
2018-02-25T00:51:18.233Z,73.80
2018-02-25T00:53:45.827Z,73.90
2018-02-25T00:56:14.116Z,73.80
2018-02-25T00:58:41.940Z,73.90
2018-02-25T01:01:09.524Z,73.60
2018-02-25T01:03:42.899Z,73.70
2018-02-25T01:06:10.517Z,73.40
2018-02-25T01:08:38.068Z,73.90
2018-02-25T01:11:05.701Z,74.00
2018-02-25T01:13:33.370Z,73.80
2018-02-25T01:16:01.636Z,74.00
2018-02-25T01:18:30.057Z,73.60
2018-02-25T01:20:58.348Z,74.30
2018-02-25T01:23:26.028Z,73.90
2018-02-25T01:25:53.599Z,73.90
2018-02-25T01:28:21.221Z,74.10
2018-02-25T01:30:48.822Z,73.80
2018-02-25T01:33:16.378Z,74.10
2018-02-25T01:35:43.989Z,73.90
2018-02-25T01:38:11.639Z,73.70
2018-02-25T01:40:39.231Z,74.00
2018-02-25T01:43:06.874Z,73.20
2018-02-25T01:45:35.331Z,73.40
2018-02-25T01:48:02.895Z,74.00
2018-02-25T01:50:30.526Z,73.70
2018-02-25T01:52:58.186Z,73.80
2018-02-25T01:55:25.779Z,73.60
2018-02-25T01:57:53.432Z,74.00
2018-02-25T02:00:20.977Z,73.70
2018-02-25T02:02:48.904Z,73.80
2018-02-25T02:05:16.575Z,73.80
2018-02-25T02:07:44.126Z,74.00
2018-02-25T02:10:11.719Z,73.50
2018-02-25T02:12:40.365Z,73.70
2018-02-25T02:15:08.017Z,73.70
2018-02-25T02:17:35.621Z,73.50
2018-02-25T02:20:03.266Z,74.50
2018-02-25T02:22:30.857Z,74.00
2018-02-25T02:24:59.422Z,74.10
2018-02-25T02:27:27.439Z,74.50
2018-02-25T02:29:55.075Z,74.40
2018-02-25T02:32:22.636Z,73.50
2018-02-25T02:34:50.206Z,74.80
2018-02-25T02:37:18.548Z,74.00
2018-02-25T02:39:46.573Z,73.80
2018-02-25T02:42:14.236Z,73.80
2018-02-25T02:44:42.833Z,73.40
2018-02-25T02:47:10.834Z,74.10
2018-02-25T02:49:38.492Z,74.10
2018-02-25T02:52:06.327Z,74.20
2018-02-25T02:54:34.037Z,74.00
2018-02-25T02:57:04.042Z,74.50
2018-02-25T02:59:32.579Z,74.00
2018-02-25T03:02:00.233Z,74.30
2018-02-25T03:04:27.916Z,74.00
2018-02-25T03:06:56.503Z,74.50
2018-02-25T03:09:24.618Z,74.50
2018-02-25T03:11:52.884Z,74.50
2018-02-25T03:14:20.963Z,74.50
2018-02-25T03:16:48.625Z,74.50
2018-02-25T03:19:24.240Z,74.50
2018-02-25T03:21:52.149Z,74.60
2018-02-25T03:24:19.794Z,74.60
2018-02-25T03:26:47.451Z,74.80
2018-02-25T03:29:15.026Z,75.00
2018-02-25T03:31:43.781Z,75.10
2018-02-25T03:34:18.151Z,75.10
2018-02-25T03:36:45.791Z,74.90
2018-02-25T03:39:17.081Z,75.20
2018-02-25T03:41:44.714Z,74.80
2018-02-25T03:44:14.348Z,75.20
2018-02-25T03:46:43.542Z,74.90
2018-02-25T03:49:14.074Z,75.20
2018-02-25T03:51:42.064Z,75.00
2018-02-25T03:54:10.580Z,74.40
2018-02-25T03:56:38.155Z,74.50
2018-02-25T03:59:07.679Z,75.20
2018-02-25T04:01:35.871Z,75.00
2018-02-25T04:04:03.523Z,74.40
2018-02-25T04:06:31.681Z,75.40
2018-02-25T04:08:59.932Z,75.40
2018-02-25T04:11:28.373Z,75.40
2018-02-25T04:13:56.018Z,74.60
2018-02-25T04:16:24.977Z,74.60
2018-02-25T04:18:52.538Z,74.60
2018-02-25T04:21:21.835Z,74.60
2018-02-25T04:23:49.480Z,74.70
2018-02-25T04:26:17.098Z,74.40
2018-02-25T04:28:45.072Z,75.10
2018-02-25T04:31:12.668Z,75.10
2018-02-25T04:33:40.268Z,74.50
2018-02-25T04:36:08.257Z,74.70
2018-02-25T04:38:36.943Z,74.70
2018-02-25T04:41:04.865Z,74.00
2018-02-25T04:43:32.823Z,74.80
2018-02-25T04:46:00.403Z,74.10
2018-02-25T04:48:28.901Z,73.90
2018-02-25T04:50:57.200Z,74.20
2018-02-25T04:53:25.256Z,74.60
2018-02-25T04:55:52.824Z,74.40
2018-02-25T04:58:20.383Z,74.70
2018-02-25T05:00:47.957Z,74.50
2018-02-25T05:03:15.577Z,73.80
2018-02-25T05:05:43.598Z,74.60
2018-02-25T05:08:11.208Z,74.60
2018-02-25T05:10:39.901Z,74.80
2018-02-25T05:13:07.490Z,74.10
2018-02-25T05:15:35.103Z,73.80
2018-02-25T05:18:03.019Z,73.90
2018-02-25T05:20:30.559Z,73.90
2018-02-25T05:22:58.160Z,74.20
2018-02-25T05:25:26.664Z,73.90
2018-02-25T05:27:54.251Z,73.90
2018-02-25T05:30:21.876Z,74.30
2018-02-25T05:32:49.470Z,74.00
2018-02-25T05:35:17.058Z,73.90
2018-02-25T05:37:44.718Z,74.10
2018-02-25T05:40:12.355Z,74.20
2018-02-25T05:42:39.959Z,74.90
2018-02-25T05:45:07.659Z,74.70
2018-02-25T05:47:35.229Z,75.10
2018-02-25T05:50:02.805Z,74.30
2018-02-25T05:52:30.415Z,74.00
2018-02-25T05:54:58.036Z,74.20
2018-02-25T05:57:25.640Z,75.00
2018-02-25T05:59:53.225Z,75.00
2018-02-25T06:02:20.832Z,74.80
2018-02-25T06:04:48.406Z,74.30
2018-02-25T06:07:15.986Z,74.70
2018-02-25T06:09:43.988Z,74.50
2018-02-25T06:12:11.583Z,74.50
2018-02-25T06:14:39.212Z,75.00
2018-02-25T06:17:06.805Z,74.80
2018-02-25T06:19:34.396Z,74.80
2018-02-25T06:22:02.436Z,74.60
2018-02-25T06:24:30.106Z,74.60
2018-02-25T06:26:57.709Z,74.60
2018-02-25T06:29:25.319Z,74.70
2018-02-25T06:31:52.950Z,74.80
2018-02-25T06:34:20.490Z,75.20
2018-02-25T06:36:48.112Z,75.20
2018-02-25T06:39:15.707Z,75.30
2018-02-25T06:41:43.296Z,74.70
2018-02-25T06:44:11.834Z,75.20
2018-02-25T06:46:39.478Z,75.20
2018-02-25T06:49:07.488Z,75.20
2018-02-25T06:51:35.085Z,75.20
2018-02-25T06:54:02.696Z,75.70
2018-02-25T06:56:30.323Z,75.10
2018-02-25T06:58:58.359Z,75.30
2018-02-25T07:01:26.406Z,75.40
2018-02-25T07:03:54.053Z,75.40
2018-02-25T07:06:21.641Z,75.30
2018-02-25T07:08:49.642Z,75.20
2018-02-25T07:11:18.049Z,75.20
2018-02-25T07:13:45.693Z,75.20
2018-02-25T07:16:13.716Z,75.60
2018-02-25T07:18:41.336Z,75.60
2018-02-25T07:21:08.905Z,75.80
2018-02-25T07:23:36.556Z,75.00
2018-02-25T07:26:04.155Z,75.00
2018-02-25T07:28:31.769Z,75.50
2018-02-25T07:30:59.441Z,75.60
2018-02-25T07:33:27.080Z,75.30
2018-02-25T07:35:55.035Z,75.90
2018-02-25T07:38:22.639Z,75.90
2018-02-25T07:40:50.197Z,75.60
2018-02-25T07:43:17.837Z,75.40
2018-02-25T07:45:45.486Z,75.90
2018-02-25T07:48:13.175Z,75.70
2018-02-25T07:50:40.808Z,76.00
2018-02-25T07:53:08.480Z,75.20
2018-02-25T07:55:36.107Z,75.20
2018-02-25T07:58:03.699Z,75.70
2018-02-25T08:00:31.290Z,75.20
2018-02-25T08:02:58.863Z,75.00
2018-02-25T08:05:26.460Z,75.50
2018-02-25T08:07:54.473Z,75.30
2018-02-25T08:10:22.391Z,75.30
2018-02-25T08:12:49.982Z,75.20
2018-02-25T08:15:17.608Z,75.00
2018-02-25T08:17:45.193Z,74.80
2018-02-25T08:20:12.858Z,75.20
2018-02-25T08:22:40.510Z,74.80
2018-02-25T08:25:08.109Z,74.80
2018-02-25T08:27:35.725Z,75.20
2018-02-25T08:30:03.375Z,75.00
2018-02-25T08:32:31.413Z,75.00
2018-02-25T08:34:59.042Z,75.00
2018-02-25T08:37:27.237Z,75.00
2018-02-25T08:39:54.833Z,74.90
2018-02-25T08:42:22.839Z,74.70
2018-02-25T08:44:50.475Z,74.70
2018-02-25T08:47:18.099Z,75.00
2018-02-25T08:49:45.738Z,74.80
2018-02-25T08:52:13.353Z,74.40
2018-02-25T08:54:41.011Z,75.40
2018-02-25T08:57:09.107Z,75.00
2018-02-25T08:59:36.723Z,75.00
2018-02-25T09:02:04.358Z,74.80
2018-02-25T09:04:32.088Z,74.90
2018-02-25T09:06:59.781Z,74.70
2018-02-25T09:09:27.338Z,74.80
2018-02-25T09:11:54.995Z,75.20
2018-02-25T09:14:22.681Z,74.80
2018-02-25T09:16:51.979Z,74.50
2018-02-25T09:19:19.606Z,74.70
2018-02-25T09:21:47.231Z,74.00
2018-02-25T09:24:14.822Z,74.00
2018-02-25T09:26:42.494Z,73.90
2018-02-25T09:29:10.320Z,74.10
2018-02-25T09:31:37.982Z,74.10
2018-02-25T09:34:05.660Z,73.70
2018-02-25T09:36:33.278Z,74.10
2018-02-25T09:39:02.077Z,74.10
2018-02-25T09:41:30.599Z,74.10
2018-02-25T09:43:58.178Z,73.50
2018-02-25T09:46:25.859Z,73.80
2018-02-25T09:48:53.440Z,74.10
2018-02-25T09:51:21.461Z,74.30
2018-02-25T09:53:49.083Z,74.30
2018-02-25T09:56:16.663Z,74.50
2018-02-25T09:58:44.291Z,73.70
2018-02-25T10:01:12.857Z,74.00
2018-02-25T10:03:40.586Z,73.90
2018-02-25T10:06:08.197Z,74.50
2018-02-25T10:08:35.775Z,74.30
2018-02-25T10:11:03.456Z,74.50
2018-02-25T10:13:31.096Z,74.20
2018-02-25T10:15:58.733Z,73.80
2018-02-25T10:18:26.559Z,74.40
2018-02-25T10:20:54.988Z,73.80
2018-02-25T10:23:23.475Z,73.30
2018-02-25T10:25:51.252Z,73.20
2018-02-25T10:28:18.899Z,72.90
2018-02-25T10:30:46.541Z,73.20
2018-02-25T10:33:14.282Z,72.50
2018-02-25T10:35:41.931Z,72.70
2018-02-25T10:38:09.924Z,73.60
2018-02-25T10:40:37.624Z,73.60
2018-02-25T10:43:05.263Z,73.50
2018-02-25T10:45:32.969Z,72.70
2018-02-25T10:48:00.631Z,73.30
2018-02-25T10:50:28.245Z,73.00
2018-02-25T10:52:55.860Z,73.00
2018-02-25T10:55:23.499Z,73.30
2018-02-25T10:57:51.176Z,72.80
2018-02-25T11:00:24.526Z,73.20
2018-02-25T11:02:52.171Z,72.70
2018-02-25T11:05:20.560Z,72.40
2018-02-25T11:07:48.175Z,72.50
2018-02-25T11:10:15.834Z,72.50
2018-02-25T11:12:43.572Z,71.80
2018-02-25T11:15:11.106Z,71.90
2018-02-25T11:17:38.771Z,72.20
2018-02-25T11:20:06.995Z,72.30
2018-02-25T11:22:35.012Z,72.30
2018-02-25T11:25:02.649Z,72.30
2018-02-25T11:27:30.285Z,72.80
2018-02-25T11:29:57.984Z,72.10
2018-02-25T11:32:25.564Z,72.00
2018-02-25T11:34:53.165Z,72.60
2018-02-25T11:37:20.792Z,72.40
2018-02-25T11:39:48.477Z,72.50
2018-02-25T11:42:16.789Z,72.40
2018-02-25T11:44:44.510Z,72.70
2018-02-25T11:47:12.128Z,72.50
2018-02-25T11:49:39.760Z,72.50
2018-02-25T11:52:07.437Z,72.60
2018-02-25T11:54:35.078Z,73.20
2018-02-25T11:57:02.718Z,72.60
2018-02-25T11:59:30.323Z,72.90
2018-02-25T12:01:57.933Z,72.00
2018-02-25T12:04:25.584Z,72.00
2018-02-25T12:06:53.187Z,71.60
2018-02-25T12:09:20.810Z,71.60
2018-02-25T12:11:48.398Z,71.70
2018-02-25T12:14:16.080Z,72.00
2018-02-25T12:16:43.637Z,72.00
2018-02-25T12:19:11.305Z,72.70
2018-02-25T12:21:38.959Z,72.60
2018-02-25T12:24:07.080Z,72.30
2018-02-25T12:26:34.674Z,72.30
2018-02-25T12:29:02.541Z,71.90
2018-02-25T12:31:30.102Z,71.90
2018-02-25T12:33:57.663Z,72.10
2018-02-25T12:36:25.313Z,71.60
2018-02-25T12:38:52.875Z,72.70
2018-02-25T12:41:20.496Z,72.30
2018-02-25T12:43:48.832Z,73.00
2018-02-25T12:46:16.437Z,72.50
2018-02-25T12:48:44.106Z,71.90
2018-02-25T12:51:11.646Z,71.70
2018-02-25T12:53:39.256Z,71.30
2018-02-25T12:56:06.857Z,71.50
2018-02-25T12:58:34.456Z,71.60
2018-02-25T13:01:03.427Z,71.70
2018-02-25T13:03:31.076Z,71.70
2018-02-25T13:05:58.689Z,71.80
2018-02-25T13:08:26.321Z,71.80
2018-02-25T13:10:54.356Z,71.80
2018-02-25T13:13:21.983Z,71.80
2018-02-25T13:15:49.552Z,71.40
2018-02-25T13:18:17.182Z,71.10
2018-02-25T13:20:45.160Z,70.90
2018-02-25T13:23:12.789Z,70.90
2018-02-25T13:25:41.385Z,70.70
2018-02-25T13:28:08.949Z,70.70
2018-02-25T13:30:36.566Z,70.50
2018-02-25T13:33:04.206Z,70.20
2018-02-25T13:35:31.779Z,70.50
2018-02-25T13:37:59.400Z,70.80
2018-02-25T13:40:27.461Z,70.50
2018-02-25T13:42:55.085Z,70.50
2018-02-25T13:45:22.802Z,70.40
2018-02-25T13:47:50.441Z,70.30
2018-02-25T13:50:18.133Z,70.80
2018-02-25T13:52:45.728Z,70.90
2018-02-25T13:55:13.374Z,70.70
2018-02-25T13:57:40.927Z,70.60
2018-02-25T14:00:08.500Z,70.30
2018-02-25T14:02:36.183Z,70.40
2018-02-25T14:05:03.772Z,69.80
2018-02-25T14:07:31.417Z,69.10
2018-02-25T14:09:59.691Z,69.30
2018-02-25T14:12:27.382Z,69.50
2018-02-25T14:14:54.949Z,69.40
2018-02-25T14:17:22.617Z,69.80
2018-02-25T14:19:50.218Z,69.40
2018-02-25T14:22:17.811Z,69.20
2018-02-25T14:24:45.404Z,69.80
2018-02-25T14:27:13.071Z,69.50
2018-02-25T14:29:40.681Z,69.30
2018-02-25T14:32:09.516Z,69.60
2018-02-25T14:34:37.087Z,69.20
2018-02-25T14:37:04.683Z,69.00
2018-02-25T14:39:32.282Z,68.80
2018-02-25T14:41:59.915Z,68.80
2018-02-25T14:44:27.543Z,68.90
2018-02-25T14:46:55.136Z,68.60
2018-02-25T14:49:22.834Z,69.00
2018-02-25T14:51:50.504Z,68.50
2018-02-25T14:54:18.144Z,68.50
2018-02-25T14:56:45.744Z,68.70
2018-02-25T14:59:13.364Z,68.20
2018-02-25T15:01:40.920Z,68.60
2018-02-25T15:04:08.571Z,68.10
2018-02-25T15:06:36.224Z,67.40
2018-02-25T15:09:03.819Z,68.00
2018-02-25T15:11:31.516Z,68.20
2018-02-25T15:13:59.133Z,68.30
2018-02-25T15:16:26.726Z,68.40
2018-02-25T15:18:54.467Z,68.20
2018-02-25T15:21:22.536Z,67.40
2018-02-25T15:23:50.157Z,67.40
2018-02-25T15:26:17.803Z,67.30
2018-02-25T15:28:45.573Z,67.50
2018-02-25T15:31:13.280Z,66.90
2018-02-25T15:33:40.887Z,67.50
2018-02-25T15:36:08.552Z,67.70
2018-02-25T15:38:36.183Z,67.50
2018-02-25T15:41:03.744Z,67.20
2018-02-25T15:43:31.760Z,66.10
2018-02-25T15:45:59.403Z,66.10
2018-02-25T15:48:27.086Z,66.30
2018-02-25T15:50:54.627Z,66.30
2018-02-25T15:53:22.229Z,66.30
2018-02-25T15:55:49.839Z,66.30
2018-02-25T15:58:17.374Z,65.90
2018-02-25T16:00:45.470Z,66.60
2018-02-25T16:03:13.150Z,66.60
2018-02-25T16:05:40.885Z,67.00
2018-02-25T16:08:08.668Z,67.00
2018-02-25T16:10:36.325Z,67.20
2018-02-25T16:13:03.950Z,66.10
2018-02-25T16:15:31.929Z,66.50
2018-02-25T16:17:59.522Z,66.50
2018-02-25T16:20:27.160Z,66.00
2018-02-25T16:22:54.982Z,66.30
2018-02-25T16:25:23.195Z,66.10
2018-02-25T16:27:50.852Z,66.10
2018-02-25T16:30:18.816Z,66.10
2018-02-25T16:32:46.495Z,66.10
2018-02-25T16:35:14.255Z,66.70
2018-02-25T16:37:41.874Z,65.90
2018-02-25T16:40:09.528Z,66.30
2018-02-25T16:42:37.317Z,66.30
2018-02-25T16:45:05.121Z,66.20
2018-02-25T16:47:32.756Z,65.90
2018-02-25T16:50:00.335Z,65.90
2018-02-25T16:52:27.957Z,65.50
2018-02-25T16:54:56.104Z,66.50
2018-02-25T16:57:23.847Z,66.50
2018-02-25T16:59:59.870Z,66.00
2018-02-25T17:02:29.231Z,65.50
2018-02-25T17:04:56.890Z,66.00
2018-02-25T17:07:26.177Z,66.60
2018-02-25T17:10:03.123Z,65.70
2018-02-25T17:15:13.276Z,65.70
2018-02-25T17:17:54.049Z,65.70
2018-02-25T17:20:21.676Z,66.50
2018-02-25T17:22:49.417Z,65.70
2018-02-25T17:28:09.986Z,65.60
2018-02-25T17:30:38.968Z,65.80
2018-02-25T17:33:07.428Z,65.40
2018-02-25T17:35:35.450Z,65.40
2018-02-25T17:38:03.076Z,65.40
2018-02-25T17:40:37.002Z,65.70
2018-02-25T17:43:04.608Z,65.90
2018-02-25T17:45:40.531Z,65.90
2018-02-25T17:48:08.904Z,65.00
2018-02-25T17:53:32.394Z,66.20
2018-02-25T17:56:13.593Z,66.10
2018-02-25T17:58:41.551Z,65.80
2018-02-25T18:01:12.418Z,66.20
2018-02-25T18:06:41.713Z,65.40
2018-02-25T18:09:09.274Z,65.60
2018-02-25T18:14:50.774Z,65.80
2018-02-25T18:17:20.569Z,65.30
2018-02-25T18:19:55.801Z,65.10
2018-02-25T18:25:15.816Z,64.80
2018-02-25T18:27:43.385Z,64.90
2018-02-25T18:30:11.000Z,65.20
2018-02-25T18:32:38.665Z,64.90
2018-02-25T18:35:06.435Z,65.20
2018-02-25T18:37:33.999Z,66.10
2018-02-25T18:40:01.647Z,65.60
2018-02-25T18:42:29.208Z,65.00
2018-02-25T18:44:56.809Z,65.00
2018-02-25T18:47:25.131Z,65.20
2018-02-25T18:49:52.774Z,65.10
2018-02-25T18:52:20.859Z,64.70
2018-02-25T18:54:48.677Z,64.70
2018-02-25T18:57:16.487Z,65.70
2018-02-25T18:59:44.115Z,65.60
2018-02-25T19:02:11.865Z,65.70
2018-02-25T19:04:39.642Z,65.90
2018-02-25T19:07:07.572Z,66.00
2018-02-25T19:09:35.161Z,66.10
2018-02-25T19:12:02.800Z,66.00
2018-02-25T19:14:30.455Z,66.20
2018-02-25T19:16:58.092Z,66.00
2018-02-25T19:19:25.720Z,66.10
2018-02-25T19:21:53.313Z,66.40
2018-02-25T19:24:20.833Z,66.10
2018-02-25T19:26:48.850Z,67.30
2018-02-25T19:29:16.421Z,67.30
2018-02-25T19:31:44.040Z,67.70
2018-02-25T19:34:12.560Z,66.60
2018-02-25T19:36:45.875Z,67.00
2018-02-25T19:39:19.032Z,67.10
2018-02-25T19:41:52.211Z,67.40
2018-02-25T19:44:19.925Z,67.10
2018-02-25T19:46:47.543Z,67.40
2018-02-25T19:49:15.148Z,67.30
2018-02-25T19:51:42.922Z,66.70
2018-02-25T19:54:11.234Z,66.80
2018-02-25T19:56:39.127Z,66.90
2018-02-25T19:59:06.903Z,66.70
2018-02-25T20:01:34.893Z,66.70
2018-02-25T20:04:02.497Z,66.70
2018-02-25T20:06:30.208Z,67.40
2018-02-25T20:08:58.171Z,68.10
2018-02-25T20:11:26.718Z,66.70
2018-02-25T20:13:54.931Z,66.70
2018-02-25T20:16:22.539Z,66.90
2018-02-25T20:18:50.105Z,67.00
2018-02-25T20:33:08.889Z,66.40
2018-02-25T20:35:46.377Z,66.40
2018-02-25T20:38:14.207Z,66.20
2018-02-25T20:40:54.123Z,66.30
2018-02-25T20:43:21.665Z,66.40
2018-02-25T20:45:49.298Z,66.30
2018-02-25T20:51:24.111Z,66.70
2018-02-25T20:53:59.041Z,66.40
2018-02-25T20:56:26.593Z,66.80
2018-02-25T21:01:38.588Z,67.30
2018-02-25T21:04:08.915Z,66.90
2018-02-25T21:06:36.535Z,66.80
2018-02-25T21:09:04.229Z,67.00
2018-02-25T21:11:34.851Z,67.60
2018-02-25T21:14:02.494Z,67.70
2018-02-25T21:16:30.066Z,67.50
2018-02-25T21:18:57.687Z,67.60
2018-02-25T21:21:25.283Z,67.40
2018-02-25T21:23:52.863Z,67.20
2018-02-25T21:26:22.045Z,67.90
2018-02-25T21:28:49.641Z,67.80
2018-02-25T21:31:17.227Z,67.40
2018-02-25T21:33:45.221Z,67.30
2018-02-25T21:36:12.848Z,67.40
2018-02-25T21:38:41.565Z,67.80
2018-02-25T21:41:10.211Z,67.50
2018-02-25T21:43:38.788Z,68.00
2018-02-25T21:46:06.425Z,68.00
2018-02-25T21:48:34.472Z,68.40
2018-02-25T21:51:02.049Z,68.00
2018-02-25T21:53:35.270Z,68.50
2018-02-25T21:56:08.484Z,68.00
2018-02-25T21:58:41.495Z,68.50
2018-02-25T22:01:14.537Z,68.60
2018-02-25T22:03:42.086Z,68.90
2018-02-25T22:06:09.581Z,69.10
2018-02-25T22:08:38.006Z,68.80
2018-02-25T22:11:05.578Z,68.80
2018-02-25T22:13:33.059Z,68.90
2018-02-25T22:16:00.526Z,69.20
2018-02-25T22:18:28.510Z,68.70
2018-02-25T22:20:55.973Z,68.80
2018-02-25T22:23:23.472Z,69.10
2018-02-25T22:25:50.999Z,68.70
2018-02-25T22:28:18.575Z,68.30
2018-02-25T22:30:46.169Z,68.50
2018-02-25T22:33:13.803Z,68.70
2018-02-25T22:35:41.371Z,68.90
2018-02-25T22:38:08.915Z,69.20
2018-02-25T22:40:36.504Z,69.00
2018-02-25T22:43:04.496Z,69.80
2018-02-25T22:45:32.035Z,69.80
2018-02-25T22:47:59.967Z,69.60
2018-02-25T22:50:27.539Z,69.60
2018-02-25T22:52:55.063Z,69.20
2018-02-25T22:55:22.652Z,69.50
2018-02-25T22:57:50.179Z,69.50
2018-02-25T23:00:21.533Z,69.40
2018-02-25T23:02:49.104Z,69.20
2018-02-25T23:05:16.644Z,69.70
2018-02-25T23:07:44.225Z,70.00
2018-02-25T23:10:11.778Z,70.00
2018-02-25T23:12:39.295Z,70.90
2018-02-25T23:15:06.860Z,70.70
2018-02-25T23:17:34.443Z,70.30
2018-02-25T23:20:01.955Z,70.70
2018-02-25T23:22:29.680Z,70.60
2018-02-25T23:24:57.292Z,69.90
2018-02-25T23:27:24.800Z,69.90
2018-02-25T23:29:52.303Z,69.60
2018-02-25T23:32:19.880Z,69.60
2018-02-25T23:34:47.386Z,70.30
2018-02-25T23:37:14.937Z,70.80
2018-02-25T23:39:42.458Z,70.10
2018-02-25T23:42:09.965Z,70.60
2018-02-25T23:44:37.531Z,70.30
2018-02-25T23:47:05.444Z,70.60
2018-02-25T23:49:33.027Z,70.60
2018-02-25T23:52:00.636Z,70.80
2018-02-25T23:54:28.195Z,70.90
2018-02-25T23:56:55.715Z,70.50
2018-02-25T23:59:23.240Z,70.90
